Terminal Aerodrome Forecast
Issued by NWS Sterling, VA

Home | Current Version | Previous Version | Text Only | Print | Product List | Glossary On
Versions: 1 2 3 4 5 6 7 8 9 10 11 12 13
000
FTUS41 KLWX 012332
TAFCHO
TAF
KCHO 012332Z 0200/0224 18006KT P6SM -RA BKN005 OVC045
     FM020200 21006KT P6SM OVC035
     FM021100 28004KT P6SM BKN070
     FM021500 31008KT P6SM SCT200=

USA.gov is the U.S. government's official web portal to all federal, state and local government web resources and services.